Baltic Frost — 9HA2868 — position and weather

sailwx.info

Track history (hours):
 
Tides and Currents Weather Stations Pressure Air Temp Water Temp Dewpoint Dewpoint Depression Visibility Wind Speed Wind Dir Waves Ship Positions

Baltic Frost

Last reported at 2014-Jul-28 08:28 UTC. Time now 2014-Jul-29 06:50 UTC.
Position N 57°30' E 008°49'.

Length 182 m; draft 11.4 m.

Type: Ship. MMSI: 256495000.

Date/timePositionNaut miles runAvg speedWind from/ knotsBaromVisibWave heightAir tempDewpointWater temp
2014-Jul-28 08:28N 57°30' E 008°49'1212.7
2014-Jul-28 07:30N 57°36' E 009°08'3712.4
2014-Jul-28 04:31N 57°49' E 010°14'1212.9
2014-Jul-28 03:33N 57°49' E 010°37'1111.3
2014-Jul-28 02:33N 57°44' E 010°55'1313.0
2014-Jul-28 01:33N 57°35' E 011°12'1313.2
2014-Jul-28 00:33N 57°24' E 011°28'1413.5
2014-Jul-27 23:33N 57°12' E 011°37'1413.4
2014-Jul-27 22:32N 56°59' E 011°46'1313.1
2014-Jul-27 21:33N 56°47' E 011°52'1312.9
2014-Jul-27 20:33N 56°35' E 011°43'1313.2
2014-Jul-27 19:33N 56°24' E 011°30'1313.3
2014-Jul-27 18:33N 56°12' E 011°18'9711.6
2014-Jul-27 10:12N 54°36' E 010°59'812.9
2014-Jul-27 09:33N 54°36' E 011°13'1313.5
2014-Jul-27 08:33N 54°30' E 011°34'1312.9
2014-Jul-27 07:33N 54°27' E 011°56'1111.2
2014-Jul-27 06:33N 54°31' E 012°13'9 8.9
2014-Jul-27 05:33N 54°39' E 012°21'1110.9
2014-Jul-27 04:33N 54°45' E 012°37'1211.6
2014-Jul-27 03:33N 54°50' E 012°55'1312.6
2014-Jul-27 02:33N 54°54' E 013°16'1312.8
2014-Jul-27 01:33N 54°58' E 013°37'1313.1
2014-Jul-27 00:34N 55°03' E 013°58'1211.6
2014-Jul-26 23:33N 55°11' E 014°12'1313.5
2014-Jul-26 22:34N 55°21' E 014°28'1313.2
2014-Jul-26 21:33N 55°30' E 014°46'1313.3
2014-Jul-26 20:33N 55°36' E 015°06'1313.5
2014-Jul-26 19:33N 55°40' E 015°29'1313.5
2014-Jul-26 18:33N 55°44' E 015°52'1413.7
2014-Jul-26 17:33N 55°47' E 016°16'1413.6
2014-Jul-26 16:33N 55°50' E 016°39'1413.5
2014-Jul-26 15:33N 55°54' E 017°03'1313.4
2014-Jul-26 14:33N 55°58' E 017°26'1313.3
2014-Jul-26 13:33N 56°02' E 017°48'1413.8
2014-Jul-26 12:33N 56°09' E 018°09'1413.6
2014-Jul-26 11:33N 56°16' E 018°30'1312.9
2014-Jul-26 10:33N 56°25' E 018°48'1413.3
2014-Jul-26 09:29N 56°37' E 019°00'1213.3
2014-Jul-26 08:33N 56°48' E 019°11'1313.4
2014-Jul-26 07:33N 56°60' E 019°23'1313.4
2014-Jul-26 06:33N 57°11' E 019°35'1713.4
2014-Jul-26 05:19N 57°26' E 019°49'1013.3
2014-Jul-26 04:33N 57°35' E 019°57'1413.4
2014-Jul-26 03:33N 57°48' E 020°07'3213.6
2014-Jul-26 01:11N 58°17' E 020°33'913.7
2014-Jul-26 00:30N 58°25' E 020°43'1613.6
2014-Jul-25 23:21N 58°38' E 020°59'1513.4
2014-Jul-25 22:12N 58°51' E 021°15'913.4
2014-Jul-25 21:33N 58°58' E 021°24'1313.5
2014-Jul-25 20:33N 59°09' E 021°39'1313.3
2014-Jul-25 19:33N 59°18' E 021°59'1313.4
2014-Jul-25 18:33N 59°26' E 022°20'1313.0
2014-Jul-25 17:33N 59°32' E 022°42'1513.7
2014-Jul-25 16:28N 59°36' E 023°11'1213.6
2014-Jul-25 15:33N 59°39' E 023°34'1413.8
2014-Jul-25 14:33N 59°43' E 024°01'1413.6
2014-Jul-25 13:33N 59°47' E 024°27'1413.5
2014-Jul-25 12:30N 59°50' E 024°54'1513.7
2014-Jul-25 11:26N 59°53' E 025°23'1213.6
2014-Jul-25 10:33N 59°55' E 025°46'1313.4
2014-Jul-25 09:33N 59°59' E 026°12'1313.2
2014-Jul-25 08:33N 60°01' E 026°38'1612.5
2014-Jul-25 07:16N 60°01' E 027°10'913.3
2014-Jul-25 06:33N 60°06' E 027°26'2612.0
2014-Jul-25 04:24N 60°07' E 028°18'25 0.5
2014-Jul-23 01:33N 60°06' E 027°29'1212.3
2014-Jul-23 00:33N 59°59' E 027°08'1111.4
2014-Jul-22 23:33N 59°59' E 026°45'1111.5
2014-Jul-22 22:33N 59°57' E 026°23'5811.6
2014-Jul-22 17:32N 59°44' E 024°29'1111.8
2014-Jul-22 16:33N 59°41' E 024°08'1110.8
2014-Jul-22 15:33N 59°37' E 023°47'9 8.5
2014-Jul-22 14:33N 59°35' E 023°31'12 8.9
2014-Jul-22 13:13N 59°31' E 023°09'2110.1
2014-Jul-22 11:11N 59°22' E 022°32'3112.0
2014-Jul-22 08:33N 59°03' E 021°45'3911.6
2014-Jul-22 05:12N 58°31' E 021°01'811.8
2014-Jul-22 04:32N 58°24' E 020°53'2411.7
2014-Jul-22 02:28N 58°04' E 020°27'2311.7
2014-Jul-22 00:33N 57°44' E 020°09'1211.7
2014-Jul-21 23:33N 57°33' E 020°00'1211.6
2014-Jul-21 22:33N 57°22' E 019°52'1211.7
2014-Jul-21 21:33N 57°11' E 019°44'1111.4
2014-Jul-21 20:33N 57°01' E 019°34'311.5
2014-Jul-21 20:18N 56°59' E 019°31'811.3
2014-Jul-21 19:33N 56°51' E 019°25'1111.3
2014-Jul-21 18:33N 56°41' E 019°16'1111.1
2014-Jul-21 17:33N 56°31' E 019°08'1110.8
2014-Jul-21 16:33N 56°23' E 018°54'1110.7
2014-Jul-21 15:33N 56°15' E 018°41'1111.0
2014-Jul-21 14:33N 56°10' E 018°24'1111.2
2014-Jul-21 13:33N 56°04' E 018°07'4410.7
2014-Jul-21 09:28N 55°48' E 016°53'4611.0
2014-Jul-21 05:20N 55°37' E 015°35'811.0
2014-Jul-21 04:33N 55°35' E 015°21'1111.0
2014-Jul-21 03:33N 55°30' E 015°03'1111.3
2014-Jul-21 02:33N 55°26' E 014°45'1111.2
2014-Jul-21 01:33N 55°18' E 014°30'1010.3
2014-Jul-21 00:33N 55°11' E 014°17'1110.7
2014-Jul-20 23:33N 55°11' E 013°59'1110.6
2014-Jul-20 22:33N 55°11' E 013°40'1110.8
2014-Jul-20 21:33N 55°11' E 013°21'1110.6
2014-Jul-20 20:33N 55°13' E 013°03'1110.7
2014-Jul-20 19:33N 55°16' E 012°45'6 6.0
2014-Jul-20 18:33N 55°21' E 012°39'6 6.0
2014-Jul-20 17:33N 55°27' E 012°41'6 6.1
2014-Jul-20 16:34N 55°33' E 012°42'1211.5
2014-Jul-20 15:33N 55°44' E 012°41'1312.6
2014-Jul-20 14:33N 55°57' E 012°39'1111.0
2014-Jul-20 13:33N 56°07' E 012°31'9 9.2
2014-Jul-20 12:33N 56°12' E 012°18'1111.0
2014-Jul-20 11:33N 56°20' E 012°03'1211.6
2014-Jul-20 10:32N 56°31' E 011°58'1110.8
2014-Jul-20 09:33N 56°41' E 011°53'1111.2
2014-Jul-20 08:33N 56°52' E 011°48'1111.3
2014-Jul-20 07:33N 57°03' E 011°41'1110.9
2014-Jul-20 06:33N 57°13' E 011°34'1110.8
2014-Jul-20 05:33N 57°23' E 011°27'1110.8
2014-Jul-20 04:33N 57°32' E 011°15'1010.5
2014-Jul-20 03:33N 57°39' E 011°01'1110.6
2014-Jul-20 02:33N 57°46' E 010°46'1110.9
2014-Jul-20 01:33N 57°47' E 010°26'1111.2
2014-Jul-20 00:33N 57°45' E 010°05'1111.4
2014-Jul-19 23:33N 57°41' E 009°46'16511.0
2014-Jul-19 08:28N 55°36' E 006°28'6110.1
2014-Jul-19 02:28N 54°45' E 005°31'1111.7
2014-Jul-19 01:32N 54°35' E 005°22'1311.9
2014-Jul-19 00:24N 54°24' E 005°11'1012.0
2014-Jul-18 23:33N 54°15' E 005°03'1211.9
2014-Jul-18 22:34N 54°04' E 004°52'1211.8
2014-Jul-18 21:32N 53°56' E 004°38'1111.6
2014-Jul-18 20:34N 53°48' E 004°24'1111.2
2014-Jul-18 19:34N 53°41' E 004°09'1111.0
2014-Jul-18 18:33N 53°34' E 003°54'1210.7
2014-Jul-18 17:27N 53°25' E 003°42'1011.0
2014-Jul-18 16:34N 53°16' E 003°35'1310.7
2014-Jul-18 15:22N 53°05' E 003°26'29 7.2
2014-Jul-18 11:18N 52°36' E 003°13'911.8
2014-Jul-18 10:32N 52°27' E 003°13'1212.0
2014-Jul-18 09:33N 52°15' E 003°12'  
Track history (hours):
 
Tides and Currents Weather Stations Pressure Air Temp Water Temp Dewpoint Dewpoint Depression Visibility Wind Speed Wind Dir Waves Ship Positions

Baltic Frost

Last reported at 2014-Jul-28 08:28 UTC. Time now 2014-Jul-29 06:50 UTC.
Position N 57°30' E 008°49'.

Length 182 m; draft 11.4 m.

Type: Ship. MMSI: 256495000.

Date/timePositionNaut miles runAvg speedWind from/ knotsBaromVisibWave heightAir tempDewpointWater temp
2014-Jul-28 08:28N 57°30' E 008°49'1212.7
2014-Jul-28 07:30N 57°36' E 009°08'3712.4
2014-Jul-28 04:31N 57°49' E 010°14'1212.9
2014-Jul-28 03:33N 57°49' E 010°37'1111.3
2014-Jul-28 02:33N 57°44' E 010°55'1313.0
2014-Jul-28 01:33N 57°35' E 011°12'1313.2
2014-Jul-28 00:33N 57°24' E 011°28'1413.5
2014-Jul-27 23:33N 57°12' E 011°37'1413.4
2014-Jul-27 22:32N 56°59' E 011°46'1313.1
2014-Jul-27 21:33N 56°47' E 011°52'1312.9
2014-Jul-27 20:33N 56°35' E 011°43'1313.2
2014-Jul-27 19:33N 56°24' E 011°30'1313.3
2014-Jul-27 18:33N 56°12' E 011°18'9711.6
2014-Jul-27 10:12N 54°36' E 010°59'812.9
2014-Jul-27 09:33N 54°36' E 011°13'1313.5
2014-Jul-27 08:33N 54°30' E 011°34'1312.9
2014-Jul-27 07:33N 54°27' E 011°56'1111.2
2014-Jul-27 06:33N 54°31' E 012°13'9 8.9
2014-Jul-27 05:33N 54°39' E 012°21'1110.9
2014-Jul-27 04:33N 54°45' E 012°37'1211.6
2014-Jul-27 03:33N 54°50' E 012°55'1312.6
2014-Jul-27 02:33N 54°54' E 013°16'1312.8
2014-Jul-27 01:33N 54°58' E 013°37'1313.1
2014-Jul-27 00:34N 55°03' E 013°58'1211.6
2014-Jul-26 23:33N 55°11' E 014°12'1313.5
2014-Jul-26 22:34N 55°21' E 014°28'1313.2
2014-Jul-26 21:33N 55°30' E 014°46'1313.3
2014-Jul-26 20:33N 55°36' E 015°06'1313.5
2014-Jul-26 19:33N 55°40' E 015°29'1313.5
2014-Jul-26 18:33N 55°44' E 015°52'1413.7
2014-Jul-26 17:33N 55°47' E 016°16'1413.6
2014-Jul-26 16:33N 55°50' E 016°39'1413.5
2014-Jul-26 15:33N 55°54' E 017°03'1313.4
2014-Jul-26 14:33N 55°58' E 017°26'1313.3
2014-Jul-26 13:33N 56°02' E 017°48'1413.8
2014-Jul-26 12:33N 56°09' E 018°09'1413.6
2014-Jul-26 11:33N 56°16' E 018°30'1312.9
2014-Jul-26 10:33N 56°25' E 018°48'1413.3
2014-Jul-26 09:29N 56°37' E 019°00'1213.3
2014-Jul-26 08:33N 56°48' E 019°11'1313.4
2014-Jul-26 07:33N 56°60' E 019°23'1313.4
2014-Jul-26 06:33N 57°11' E 019°35'1713.4
2014-Jul-26 05:19N 57°26' E 019°49'1013.3
2014-Jul-26 04:33N 57°35' E 019°57'1413.4
2014-Jul-26 03:33N 57°48' E 020°07'3213.6
2014-Jul-26 01:11N 58°17' E 020°33'913.7
2014-Jul-26 00:30N 58°25' E 020°43'1613.6
2014-Jul-25 23:21N 58°38' E 020°59'1513.4
2014-Jul-25 22:12N 58°51' E 021°15'913.4
2014-Jul-25 21:33N 58°58' E 021°24'1313.5
2014-Jul-25 20:33N 59°09' E 021°39'1313.3
2014-Jul-25 19:33N 59°18' E 021°59'1313.4
2014-Jul-25 18:33N 59°26' E 022°20'1313.0
2014-Jul-25 17:33N 59°32' E 022°42'1513.7
2014-Jul-25 16:28N 59°36' E 023°11'1213.6
2014-Jul-25 15:33N 59°39' E 023°34'1413.8
2014-Jul-25 14:33N 59°43' E 024°01'1413.6
2014-Jul-25 13:33N 59°47' E 024°27'1413.5
2014-Jul-25 12:30N 59°50' E 024°54'1513.7
2014-Jul-25 11:26N 59°53' E 025°23'1213.6
2014-Jul-25 10:33N 59°55' E 025°46'1313.4
2014-Jul-25 09:33N 59°59' E 026°12'1313.2
2014-Jul-25 08:33N 60°01' E 026°38'1612.5
2014-Jul-25 07:16N 60°01' E 027°10'913.3
2014-Jul-25 06:33N 60°06' E 027°26'2612.0
2014-Jul-25 04:24N 60°07' E 028°18'25 0.5
2014-Jul-23 01:33N 60°06' E 027°29'1212.3
2014-Jul-23 00:33N 59°59' E 027°08'1111.4
2014-Jul-22 23:33N 59°59' E 026°45'1111.5
2014-Jul-22 22:33N 59°57' E 026°23'5811.6
2014-Jul-22 17:32N 59°44' E 024°29'1111.8
2014-Jul-22 16:33N 59°41' E 024°08'1110.8
2014-Jul-22 15:33N 59°37' E 023°47'9 8.5
2014-Jul-22 14:33N 59°35' E 023°31'12 8.9
2014-Jul-22 13:13N 59°31' E 023°09'2110.1
2014-Jul-22 11:11N 59°22' E 022°32'3112.0
2014-Jul-22 08:33N 59°03' E 021°45'3911.6
2014-Jul-22 05:12N 58°31' E 021°01'811.8
2014-Jul-22 04:32N 58°24' E 020°53'2411.7
2014-Jul-22 02:28N 58°04' E 020°27'2311.7
2014-Jul-22 00:33N 57°44' E 020°09'1211.7
2014-Jul-21 23:33N 57°33' E 020°00'1211.6
2014-Jul-21 22:33N 57°22' E 019°52'1211.7
2014-Jul-21 21:33N 57°11' E 019°44'1111.4
2014-Jul-21 20:33N 57°01' E 019°34'311.5
2014-Jul-21 20:18N 56°59' E 019°31'811.3
2014-Jul-21 19:33N 56°51' E 019°25'1111.3
2014-Jul-21 18:33N 56°41' E 019°16'1111.1
2014-Jul-21 17:33N 56°31' E 019°08'1110.8
2014-Jul-21 16:33N 56°23' E 018°54'1110.7
2014-Jul-21 15:33N 56°15' E 018°41'1111.0
2014-Jul-21 14:33N 56°10' E 018°24'1111.2
2014-Jul-21 13:33N 56°04' E 018°07'4410.7
2014-Jul-21 09:28N 55°48' E 016°53'4611.0
2014-Jul-21 05:20N 55°37' E 015°35'811.0
2014-Jul-21 04:33N 55°35' E 015°21'1111.0
2014-Jul-21 03:33N 55°30' E 015°03'1111.3
2014-Jul-21 02:33N 55°26' E 014°45'1111.2
2014-Jul-21 01:33N 55°18' E 014°30'1010.3
2014-Jul-21 00:33N 55°11' E 014°17'1110.7
2014-Jul-20 23:33N 55°11' E 013°59'1110.6
2014-Jul-20 22:33N 55°11' E 013°40'1110.8
2014-Jul-20 21:33N 55°11' E 013°21'1110.6
2014-Jul-20 20:33N 55°13' E 013°03'1110.7
2014-Jul-20 19:33N 55°16' E 012°45'6 6.0
2014-Jul-20 18:33N 55°21' E 012°39'6 6.0
2014-Jul-20 17:33N 55°27' E 012°41'6 6.1
2014-Jul-20 16:34N 55°33' E 012°42'1211.5
2014-Jul-20 15:33N 55°44' E 012°41'1312.6
2014-Jul-20 14:33N 55°57' E 012°39'1111.0
2014-Jul-20 13:33N 56°07' E 012°31'9 9.2
2014-Jul-20 12:33N 56°12' E 012°18'1111.0
2014-Jul-20 11:33N 56°20' E 012°03'1211.6
2014-Jul-20 10:32N 56°31' E 011°58'1110.8
2014-Jul-20 09:33N 56°41' E 011°53'1111.2
2014-Jul-20 08:33N 56°52' E 011°48'1111.3
2014-Jul-20 07:33N 57°03' E 011°41'1110.9
2014-Jul-20 06:33N 57°13' E 011°34'1110.8
2014-Jul-20 05:33N 57°23' E 011°27'1110.8
2014-Jul-20 04:33N 57°32' E 011°15'1010.5
2014-Jul-20 03:33N 57°39' E 011°01'1110.6
2014-Jul-20 02:33N 57°46' E 010°46'1110.9
2014-Jul-20 01:33N 57°47' E 010°26'1111.2
2014-Jul-20 00:33N 57°45' E 010°05'1111.4
2014-Jul-19 23:33N 57°41' E 009°46'16511.0
2014-Jul-19 08:28N 55°36' E 006°28'6110.1
2014-Jul-19 02:28N 54°45' E 005°31'1111.7
2014-Jul-19 01:32N 54°35' E 005°22'1311.9
2014-Jul-19 00:24N 54°24' E 005°11'1012.0
2014-Jul-18 23:33N 54°15' E 005°03'1211.9
2014-Jul-18 22:34N 54°04' E 004°52'1211.8
2014-Jul-18 21:32N 53°56' E 004°38'1111.6
2014-Jul-18 20:34N 53°48' E 004°24'1111.2
2014-Jul-18 19:34N 53°41' E 004°09'1111.0
2014-Jul-18 18:33N 53°34' E 003°54'1210.7
2014-Jul-18 17:27N 53°25' E 003°42'1011.0
2014-Jul-18 16:34N 53°16' E 003°35'1310.7
2014-Jul-18 15:22N 53°05' E 003°26'29 7.2
2014-Jul-18 11:18N 52°36' E 003°13'911.8
2014-Jul-18 10:32N 52°27' E 003°13'1212.0
2014-Jul-18 09:33N 52°15' E 003°12'  

Dump ship's entire track history